sensor_id;sensor_type;location;lat;lon;timestamp;pressure;altitude;pressure_sealevel;temperature;humidity
27014;BME280;14556;52.222;4.510;2023-07-29T00:02:17;99936.94;;;16.34;100.00
27014;BME280;14556;52.222;4.510;2023-07-29T00:04:44;99925.41;;;16.43;100.00
27014;BME280;14556;52.222;4.510;2023-07-29T00:07:10;99923.53;;;16.49;100.00
27014;BME280;14556;52.222;4.510;2023-07-29T00:09:37;99925.06;;;16.35;100.00
27014;BME280;14556;52.222;4.510;2023-07-29T00:12:04;99926.75;;;16.46;100.00
27014;BME280;14556;52.222;4.510;2023-07-29T00:14:31;99921.31;;;16.41;100.00
27014;BME280;14556;52.222;4.510;2023-07-29T00:16:58;99914.00;;;16.36;100.00
27014;BME280;14556;52.222;4.510;2023-07-29T00:19:24;99918.41;;;16.48;100.00
27014;BME280;14556;52.222;4.510;2023-07-29T00:21:51;99908.88;;;16.35;100.00
27014;BME280;14556;52.222;4.510;2023-07-29T00:24:17;99917.84;;;16.46;100.00
27014;BME280;14556;52.222;4.510;2023-07-29T00:26:44;99915.44;;;16.49;100.00
27014;BME280;14556;52.222;4.510;2023-07-29T00:29:11;99905.13;;;16.41;100.00
27014;BME280;14556;52.222;4.510;2023-07-29T00:31:39;99907.28;;;16.39;100.00
27014;BME280;14556;52.222;4.510;2023-07-29T00:34:06;99911.13;;;16.53;100.00
27014;BME280;14556;52.222;4.510;2023-07-29T00:36:34;99912.19;;;16.47;100.00
27014;BME280;14556;52.222;4.510;2023-07-29T00:39:01;99903.84;;;16.49;100.00
27014;BME280;14556;52.222;4.510;2023-07-29T00:41:29;99914.63;;;16.49;100.00
27014;BME280;14556;52.222;4.510;2023-07-29T00:43:57;99894.03;;;16.32;100.00
27014;BME280;14556;52.222;4.510;2023-07-29T00:46:24;99901.38;;;16.42;100.00
27014;BME280;14556;52.222;4.510;2023-07-29T00:48:51;99900.28;;;16.43;100.00
27014;BME280;14556;52.222;4.510;2023-07-29T00:51:18;99900.22;;;16.33;100.00
27014;BME280;14556;52.222;4.510;2023-07-29T00:53:45;99896.47;;;16.34;100.00
27014;BME280;14556;52.222;4.510;2023-07-29T00:56:12;99909.41;;;16.31;100.00
27014;BME280;14556;52.222;4.510;2023-07-29T00:58:40;99897.69;;;16.15;100.00
27014;BME280;14556;52.222;4.510;2023-07-29T01:01:07;99891.72;;;16.13;100.00
27014;BME280;14556;52.222;4.510;2023-07-29T01:03:35;99887.47;;;16.17;100.00
27014;BME280;14556;52.222;4.510;2023-07-29T01:06:11;99886.84;;;16.05;100.00
27014;BME280;14556;52.222;4.510;2023-07-29T01:08:47;99890.88;;;16.02;100.00
27014;BME280;14556;52.222;4.510;2023-07-29T01:13:49;99889.50;;;16.00;100.00
27014;BME280;14556;52.222;4.510;2023-07-29T01:18:47;99882.41;;;15.93;100.00
27014;BME280;14556;52.222;4.510;2023-07-29T01:21:16;99880.75;;;15.87;100.00
27014;BME280;14556;52.222;4.510;2023-07-29T01:23:43;99882.66;;;15.92;100.00
27014;BME280;14556;52.222;4.510;2023-07-29T01:26:10;99875.19;;;15.99;100.00
27014;BME280;14556;52.222;4.510;2023-07-29T01:28:37;99884.41;;;16.03;100.00
27014;BME280;14556;52.222;4.510;2023-07-29T01:31:14;99875.47;;;16.03;100.00
27014;BME280;14556;52.222;4.510;2023-07-29T01:33:53;99874.81;;;15.90;100.00
27014;BME280;14556;52.222;4.510;2023-07-29T01:36:22;99881.22;;;15.79;100.00
27014;BME280;14556;52.222;4.510;2023-07-29T01:38:52;99888.19;;;15.75;100.00
27014;BME280;14556;52.222;4.510;2023-07-29T01:41:21;99874.69;;;15.75;100.00
27014;BME280;14556;52.222;4.510;2023-07-29T01:43:50;99877.63;;;15.68;100.00
27014;BME280;14556;52.222;4.510;2023-07-29T01:46:18;99874.69;;;15.75;100.00
27014;BME280;14556;52.222;4.510;2023-07-29T01:48:45;99866.94;;;15.83;100.00
27014;BME280;14556;52.222;4.510;2023-07-29T01:51:12;99867.13;;;15.71;100.00
27014;BME280;14556;52.222;4.510;2023-07-29T01:53:39;99853.84;;;15.59;100.00
27014;BME280;14556;52.222;4.510;2023-07-29T01:56:05;99871.66;;;15.66;100.00
27014;BME280;14556;52.222;4.510;2023-07-29T01:58:33;99871.22;;;15.74;100.00
27014;BME280;14556;52.222;4.510;2023-07-29T02:01:02;99862.19;;;15.58;100.00
27014;BME280;14556;52.222;4.510;2023-07-29T02:03:29;99847.78;;;15.47;100.00
27014;BME280;14556;52.222;4.510;2023-07-29T02:05:55;99870.81;;;15.60;100.00
27014;BME280;14556;52.222;4.510;2023-07-29T02:08:23;99866.63;;;15.42;100.00
27014;BME280;14556;52.222;4.510;2023-07-29T02:10:51;99870.72;;;15.22;100.00
27014;BME280;14556;52.222;4.510;2023-07-29T02:13:17;99866.94;;;15.18;100.00
27014;BME280;14556;52.222;4.510;2023-07-29T02:15:44;99866.22;;;15.28;100.00
27014;BME280;14556;52.222;4.510;2023-07-29T02:18:11;99861.03;;;15.21;100.00
27014;BME280;14556;52.222;4.510;2023-07-29T02:20:45;99864.25;;;15.18;100.00
27014;BME280;14556;52.222;4.510;2023-07-29T02:23:16;99856.91;;;15.13;100.00
27014;BME280;14556;52.222;4.510;2023-07-29T02:25:45;99850.91;;;15.06;100.00
27014;BME280;14556;52.222;4.510;2023-07-29T02:28:12;99852.34;;;15.14;100.00
27014;BME280;14556;52.222;4.510;2023-07-29T02:30:40;99855.78;;;15.09;100.00
27014;BME280;14556;52.222;4.510;2023-07-29T02:33:12;99846.00;;;15.03;100.00
27014;BME280;14556;52.222;4.510;2023-07-29T02:35:40;99852.59;;;15.12;100.00
27014;BME280;14556;52.222;4.510;2023-07-29T02:38:07;99845.94;;;15.20;100.00
27014;BME280;14556;52.222;4.510;2023-07-29T02:40:33;99839.56;;;15.31;100.00
27014;BME280;14556;52.222;4.510;2023-07-29T02:43:00;99828.41;;;15.17;100.00
27014;BME280;14556;52.222;4.510;2023-07-29T02:45:28;99832.75;;;15.23;100.00
27014;BME280;14556;52.222;4.510;2023-07-29T02:47:55;99830.41;;;15.32;100.00
27014;BME280;14556;52.222;4.510;2023-07-29T02:50:23;99834.78;;;15.39;100.00
27014;BME280;14556;52.222;4.510;2023-07-29T02:52:49;99808.31;;;15.30;100.00
27014;BME280;14556;52.222;4.510;2023-07-29T02:55:18;99831.53;;;15.37;100.00
27014;BME280;14556;52.222;4.510;2023-07-29T02:57:48;99822.22;;;15.22;100.00
27014;BME280;14556;52.222;4.510;2023-07-29T03:00:17;99824.66;;;15.23;100.00
27014;BME280;14556;52.222;4.510;2023-07-29T03:02:44;99823.53;;;15.14;100.00
27014;BME280;14556;52.222;4.510;2023-07-29T03:05:10;99824.00;;;15.06;100.00
27014;BME280;14556;52.222;4.510;2023-07-29T03:07:39;99822.34;;;15.05;100.00
27014;BME280;14556;52.222;4.510;2023-07-29T03:10:05;99824.84;;;15.11;100.00
27014;BME280;14556;52.222;4.510;2023-07-29T03:12:32;99827.84;;;15.15;100.00
27014;BME280;14556;52.222;4.510;2023-07-29T03:15:01;99825.75;;;15.22;100.00
27014;BME280;14556;52.222;4.510;2023-07-29T03:17:28;99823.16;;;15.33;100.00
27014;BME280;14556;52.222;4.510;2023-07-29T03:19:57;99812.63;;;15.31;100.00
27014;BME280;14556;52.222;4.510;2023-07-29T03:22:24;99826.94;;;15.32;100.00
27014;BME280;14556;52.222;4.510;2023-07-29T03:24:51;99833.09;;;15.32;100.00
27014;BME280;14556;52.222;4.510;2023-07-29T03:27:18;99840.13;;;15.33;100.00
27014;BME280;14556;52.222;4.510;2023-07-29T03:29:45;99844.44;;;15.34;100.00
27014;BME280;14556;52.222;4.510;2023-07-29T03:32:11;99841.22;;;15.38;100.00
27014;BME280;14556;52.222;4.510;2023-07-29T03:34:39;99835.41;;;15.46;100.00
27014;BME280;14556;52.222;4.510;2023-07-29T03:37:06;99829.75;;;15.47;100.00
27014;BME280;14556;52.222;4.510;2023-07-29T03:39:33;99835.75;;;15.55;100.00
27014;BME280;14556;52.222;4.510;2023-07-29T03:42:00;99820.59;;;15.49;100.00
27014;BME280;14556;52.222;4.510;2023-07-29T03:44:28;99836.78;;;15.54;100.00
27014;BME280;14556;52.222;4.510;2023-07-29T03:46:54;99826.81;;;15.49;100.00
27014;BME280;14556;52.222;4.510;2023-07-29T03:49:21;99827.31;;;15.46;100.00
27014;BME280;14556;52.222;4.510;2023-07-29T03:51:48;99832.72;;;15.46;100.00
27014;BME280;14556;52.222;4.510;2023-07-29T03:54:15;99841.09;;;15.50;100.00
27014;BME280;14556;52.222;4.510;2023-07-29T03:56:41;99847.31;;;15.55;100.00
27014;BME280;14556;52.222;4.510;2023-07-29T03:59:07;99839.50;;;15.54;100.00
27014;BME280;14556;52.222;4.510;2023-07-29T04:01:35;99847.03;;;15.52;100.00
27014;BME280;14556;52.222;4.510;2023-07-29T04:04:02;99839.94;;;15.40;100.00
27014;BME280;14556;52.222;4.510;2023-07-29T04:06:29;99836.72;;;15.43;100.00
27014;BME280;14556;52.222;4.510;2023-07-29T04:08:56;99847.53;;;15.49;100.00
27014;BME280;14556;52.222;4.510;2023-07-29T04:11:23;99835.16;;;15.47;100.00
27014;BME280;14556;52.222;4.510;2023-07-29T04:13:50;99841.84;;;15.45;100.00
27014;BME280;14556;52.222;4.510;2023-07-29T04:16:17;99841.09;;;15.50;100.00
27014;BME280;14556;52.222;4.510;2023-07-29T04:18:44;99832.44;;;15.47;100.00
27014;BME280;14556;52.222;4.510;2023-07-29T04:21:10;99830.50;;;15.43;100.00
27014;BME280;14556;52.222;4.510;2023-07-29T04:23:37;99838.06;;;15.41;100.00
27014;BME280;14556;52.222;4.510;2023-07-29T04:26:05;99829.34;;;15.33;100.00
27014;BME280;14556;52.222;4.510;2023-07-29T04:28:31;99835.00;;;15.32;100.00
27014;BME280;14556;52.222;4.510;2023-07-29T04:31:00;99824.66;;;15.23;100.00
27014;BME280;14556;52.222;4.510;2023-07-29T04:33:29;99842.28;;;15.31;100.00
27014;BME280;14556;52.222;4.510;2023-07-29T04:36:00;99830.66;;;15.31;100.00
27014;BME280;14556;52.222;4.510;2023-07-29T04:38:30;99847.75;;;15.42;100.00
27014;BME280;14556;52.222;4.510;2023-07-29T04:41:00;99845.41;;;15.51;100.00
27014;BME280;14556;52.222;4.510;2023-07-29T04:43:31;99844.63;;;15.55;100.00
27014;BME280;14556;52.222;4.510;2023-07-29T04:45:58;99840.97;;;15.67;100.00
27014;BME280;14556;52.222;4.510;2023-07-29T04:48:25;99830.22;;;15.72;100.00
27014;BME280;14556;52.222;4.510;2023-07-29T04:50:52;99836.72;;;15.81;100.00
27014;BME280;14556;52.222;4.510;2023-07-29T04:53:18;99845.66;;;15.82;100.00
27014;BME280;14556;52.222;4.510;2023-07-29T04:55:45;99845.91;;;15.80;100.00
27014;BME280;14556;52.222;4.510;2023-07-29T04:58:11;99843.50;;;15.84;100.00
27014;BME280;14556;52.222;4.510;2023-07-29T05:00:38;99852.47;;;15.90;100.00
27014;BME280;14556;52.222;4.510;2023-07-29T05:03:05;99845.94;;;15.86;100.00
27014;BME280;14556;52.222;4.510;2023-07-29T05:05:32;99844.31;;;15.85;100.00
27014;BME280;14556;52.222;4.510;2023-07-29T05:08:00;99853.22;;;15.85;100.00
27014;BME280;14556;52.222;4.510;2023-07-29T05:10:28;99843.78;;;15.82;100.00
27014;BME280;14556;52.222;4.510;2023-07-29T05:12:55;99846.75;;;15.86;100.00
27014;BME280;14556;52.222;4.510;2023-07-29T05:15:22;99846.19;;;15.84;100.00
27014;BME280;14556;52.222;4.510;2023-07-29T05:17:50;99833.53;;;15.85;100.00
27014;BME280;14556;52.222;4.510;2023-07-29T05:20:17;99832.97;;;15.82;100.00
27014;BME280;14556;52.222;4.510;2023-07-29T05:22:43;99841.41;;;15.91;100.00
27014;BME280;14556;52.222;4.510;2023-07-29T05:25:10;99832.47;;;15.86;100.00
27014;BME280;14556;52.222;4.510;2023-07-29T05:27:36;99839.50;;;15.92;100.00
27014;BME280;14556;52.222;4.510;2023-07-29T05:30:03;99826.03;;;15.92;100.00
27014;BME280;14556;52.222;4.510;2023-07-29T05:32:30;99837.09;;;15.95;100.00
27014;BME280;14556;52.222;4.510;2023-07-29T05:34:57;99827.97;;;15.97;100.00
27014;BME280;14556;52.222;4.510;2023-07-29T05:37:23;99843.69;;;16.05;100.00
27014;BME280;14556;52.222;4.510;2023-07-29T05:39:51;99836.03;;;15.97;100.00
27014;BME280;14556;52.222;4.510;2023-07-29T05:42:18;99843.13;;;16.03;100.00
27014;BME280;14556;52.222;4.510;2023-07-29T05:44:45;99837.47;;;16.04;100.00
27014;BME280;14556;52.222;4.510;2023-07-29T05:47:12;99836.38;;;16.00;100.00
27014;BME280;14556;52.222;4.510;2023-07-29T05:49:39;99831.78;;;16.01;100.00
27014;BME280;14556;52.222;4.510;2023-07-29T05:52:05;99837.72;;;16.03;100.00
27014;BME280;14556;52.222;4.510;2023-07-29T05:54:32;99834.75;;;16.04;100.00
27014;BME280;14556;52.222;4.510;2023-07-29T05:56:58;99833.97;;;16.04;100.00
27014;BME280;14556;52.222;4.510;2023-07-29T05:59:26;99845.06;;;16.07;100.00
27014;BME280;14556;52.222;4.510;2023-07-29T06:01:59;99832.59;;;16.01;100.00
27014;BME280;14556;52.222;4.510;2023-07-29T06:04:26;99844.19;;;16.02;100.00
27014;BME280;14556;52.222;4.510;2023-07-29T06:06:52;99844.50;;;16.05;100.00
27014;BME280;14556;52.222;4.510;2023-07-29T06:09:24;99853.94;;;16.08;100.00
27014;BME280;14556;52.222;4.510;2023-07-29T06:11:51;99853.38;;;16.06;100.00
27014;BME280;14556;52.222;4.510;2023-07-29T06:14:21;99852.06;;;16.09;100.00
27014;BME280;14556;52.222;4.510;2023-07-29T06:16:49;99848.25;;;16.04;100.00
27014;BME280;14556;52.222;4.510;2023-07-29T06:19:17;99855.03;;;16.07;100.00
27014;BME280;14556;52.222;4.510;2023-07-29T06:21:45;99853.38;;;16.06;100.00
27014;BME280;14556;52.222;4.510;2023-07-29T06:24:13;99856.38;;;16.10;100.00
27014;BME280;14556;52.222;4.510;2023-07-29T06:26:39;99844.13;;;15.97;100.00
27014;BME280;14556;52.222;4.510;2023-07-29T06:29:07;99868.50;;;16.07;100.00
27014;BME280;14556;52.222;4.510;2023-07-29T06:31:33;99862.03;;;16.08;100.00
27014;BME280;14556;52.222;4.510;2023-07-29T06:34:02;99870.16;;;16.13;100.00
27014;BME280;14556;52.222;4.510;2023-07-29T06:36:30;99866.13;;;16.16;100.00
27014;BME280;14556;52.222;4.510;2023-07-29T06:38:56;99859.66;;;16.17;100.00
27014;BME280;14556;52.222;4.510;2023-07-29T06:41:24;99859.69;;;16.22;100.00
27014;BME280;14556;52.222;4.510;2023-07-29T06:43:51;99866.19;;;16.26;100.00
27014;BME280;14556;52.222;4.510;2023-07-29T06:46:17;99860.25;;;16.24;100.00
27014;BME280;14556;52.222;4.510;2023-07-29T06:48:44;99862.97;;;16.29;100.00
27014;BME280;14556;52.222;4.510;2023-07-29T06:51:12;99848.06;;;16.22;100.00
27014;BME280;14556;52.222;4.510;2023-07-29T06:53:38;99852.97;;;16.25;100.00
27014;BME280;14556;52.222;4.510;2023-07-29T06:56:05;99862.16;;;16.29;100.00
27014;BME280;14556;52.222;4.510;2023-07-29T06:58:34;99866.25;;;16.37;100.00
27014;BME280;14556;52.222;4.510;2023-07-29T07:01:01;99852.22;;;16.35;100.00
27014;BME280;14556;52.222;4.510;2023-07-29T07:03:33;99855.75;;;16.40;100.00
27014;BME280;14556;52.222;4.510;2023-07-29T07:06:00;99849.81;;;16.38;100.00
27014;BME280;14556;52.222;4.510;2023-07-29T07:08:30;99867.13;;;16.48;100.00
27014;BME280;14556;52.222;4.510;2023-07-29T07:10:57;99861.47;;;16.49;100.00
27014;BME280;14556;52.222;4.510;2023-07-29T07:13:24;99862.28;;;16.55;100.00
27014;BME280;14556;52.222;4.510;2023-07-29T07:15:54;99872.03;;;16.56;100.00
27014;BME280;14556;52.222;4.510;2023-07-29T07:18:21;99861.22;;;16.56;100.00
27014;BME280;14556;52.222;4.510;2023-07-29T07:20:49;99859.38;;;16.67;100.00
27014;BME280;14556;52.222;4.510;2023-07-29T07:23:18;99861.59;;;16.80;100.00
27014;BME280;14556;52.222;4.510;2023-07-29T07:25:45;99870.28;;;16.93;100.00
27014;BME280;14556;52.222;4.510;2023-07-29T07:28:12;99875.13;;;16.96;100.00
27014;BME280;14556;52.222;4.510;2023-07-29T07:30:40;99863.81;;;17.04;100.00
27014;BME280;14556;52.222;4.510;2023-07-29T07:33:07;99876.25;;;17.06;100.00
27014;BME280;14556;52.222;4.510;2023-07-29T07:35:34;99867.63;;;17.09;100.00
27014;BME280;14556;52.222;4.510;2023-07-29T07:38:01;99865.94;;;16.97;100.00
27014;BME280;14556;52.222;4.510;2023-07-29T07:40:31;99878.06;;;16.84;100.00
27014;BME280;14556;52.222;4.510;2023-07-29T07:42:58;99879.38;;;16.76;100.00
27014;BME280;14556;52.222;4.510;2023-07-29T07:45:25;99881.78;;;16.73;100.00
27014;BME280;14556;52.222;4.510;2023-07-29T07:47:52;99880.97;;;16.62;100.00
27014;BME280;14556;52.222;4.510;2023-07-29T07:50:20;99894.19;;;16.63;100.00
27014;BME280;14556;52.222;4.510;2023-07-29T07:52:47;99887.69;;;16.59;100.00
27014;BME280;14556;52.222;4.510;2023-07-29T07:55:13;99895.25;;;16.62;100.00
27014;BME280;14556;52.222;4.510;2023-07-29T07:57:42;99895.25;;;16.62;100.00
27014;BME280;14556;52.222;4.510;2023-07-29T08:00:10;99896.63;;;16.65;100.00
27014;BME280;14556;52.222;4.510;2023-07-29T08:02:37;99906.88;;;16.63;100.00
27014;BME280;14556;52.222;4.510;2023-07-29T08:05:04;99894.72;;;16.65;100.00
27014;BME280;14556;52.222;4.510;2023-07-29T08:07:30;99900.19;;;16.76;100.00
27014;BME280;14556;52.222;4.510;2023-07-29T08:09:57;99910.47;;;16.79;100.00
27014;BME280;14556;52.222;4.510;2023-07-29T08:12:23;99902.91;;;16.76;100.00
27014;BME280;14556;52.222;4.510;2023-07-29T08:14:50;99904.75;;;16.70;100.00
27014;BME280;14556;52.222;4.510;2023-07-29T08:17:17;99907.72;;;16.68;100.00
27014;BME280;14556;52.222;4.510;2023-07-29T08:19:44;99911.22;;;16.74;100.00
27014;BME280;14556;52.222;4.510;2023-07-29T08:22:11;99904.81;;;16.86;100.00
27014;BME280;14556;52.222;4.510;2023-07-29T08:24:40;99917.28;;;16.97;100.00
27014;BME280;14556;52.222;4.510;2023-07-29T08:27:08;99897.03;;;16.95;100.00
27014;BME280;14556;52.222;4.510;2023-07-29T08:29:36;99910.28;;;17.01;100.00
27014;BME280;14556;52.222;4.510;2023-07-29T08:32:03;99910.25;;;16.96;100.00
27014;BME280;14556;52.222;4.510;2023-07-29T08:34:29;99910.78;;;16.93;100.00
27014;BME280;14556;52.222;4.510;2023-07-29T08:36:57;99907.53;;;16.91;100.00
27014;BME280;14556;52.222;4.510;2023-07-29T08:39:24;99914.56;;;16.97;100.00
27014;BME280;14556;52.222;4.510;2023-07-29T08:42:07;99921.91;;;17.02;100.00
27014;BME280;14556;52.222;4.510;2023-07-29T08:44:39;99919.47;;;17.06;100.00
27014;BME280;14556;52.222;4.510;2023-07-29T08:47:08;99917.28;;;17.02;100.00
27014;BME280;14556;52.222;4.510;2023-07-29T08:49:36;99912.78;;;17.13;100.00
27014;BME280;14556;52.222;4.510;2023-07-29T08:52:04;99912.28;;;17.37;100.00
27014;BME280;14556;52.222;4.510;2023-07-29T08:54:31;99931.50;;;17.57;100.00
27014;BME280;14556;52.222;4.510;2023-07-29T08:56:58;99919.63;;;17.63;100.00
27014;BME280;14556;52.222;4.510;2023-07-29T08:59:26;99915.84;;;17.64;100.00
27014;BME280;14556;52.222;4.510;2023-07-29T09:01:54;99910.69;;;17.57;100.00
27014;BME280;14556;52.222;4.510;2023-07-29T09:04:24;99911.22;;;17.49;100.00
27014;BME280;14556;52.222;4.510;2023-07-29T09:06:52;99900.16;;;17.50;100.00
27014;BME280;14556;52.222;4.510;2023-07-29T09:09:20;99914.47;;;17.51;100.00
27014;BME280;14556;52.222;4.510;2023-07-29T09:11:47;99910.69;;;17.62;100.00
27014;BME280;14556;52.222;4.510;2023-07-29T09:14:15;99927.75;;;17.84;100.00
27014;BME280;14556;52.222;4.510;2023-07-29T09:16:43;99911.81;;;17.82;100.00
27014;BME280;14556;52.222;4.510;2023-07-29T09:19:10;99926.13;;;17.88;100.00
27014;BME280;14556;52.222;4.510;2023-07-29T09:21:39;99917.75;;;17.84;100.00
27014;BME280;14556;52.222;4.510;2023-07-29T09:24:10;99910.44;;;17.74;100.00
27014;BME280;14556;52.222;4.510;2023-07-29T09:26:40;99919.09;;;17.71;100.00
27014;BME280;14556;52.222;4.510;2023-07-29T09:29:14;99902.59;;;17.68;100.00
27014;BME280;14556;52.222;4.510;2023-07-29T09:31:41;99908.53;;;17.70;100.00
27014;BME280;14556;52.222;4.510;2023-07-29T09:34:07;99908.28;;;17.71;100.00
27014;BME280;14556;52.222;4.510;2023-07-29T09:36:34;99918.53;;;17.69;100.00
27014;BME280;14556;52.222;4.510;2023-07-29T09:39:02;99923.69;;;17.71;100.00
27014;BME280;14556;52.222;4.510;2023-07-29T09:41:30;99918.53;;;17.64;100.00
27014;BME280;14556;52.222;4.510;2023-07-29T09:44:02;99933.69;;;17.60;100.00
27014;BME280;14556;52.222;4.510;2023-07-29T09:46:37;99912.06;;;17.55;100.00
27014;BME280;14556;52.222;4.510;2023-07-29T09:49:07;99926.09;;;17.57;100.00
27014;BME280;14556;52.222;4.510;2023-07-29T09:51:38;99920.19;;;17.60;100.00
27014;BME280;14556;52.222;4.510;2023-07-29T09:54:06;99928.81;;;17.67;100.00
27014;BME280;14556;52.222;4.510;2023-07-29T09:56:33;99920.44;;;17.69;100.00
27014;BME280;14556;52.222;4.510;2023-07-29T09:59:04;99915.28;;;17.62;100.00
27014;BME280;14556;52.222;4.510;2023-07-29T10:01:31;99918.00;;;17.67;100.00
27014;BME280;14556;52.222;4.510;2023-07-29T10:03:59;99914.22;;;17.63;100.00
27014;BME280;14556;52.222;4.510;2023-07-29T10:06:30;99931.50;;;17.62;100.00
27014;BME280;14556;52.222;4.510;2023-07-29T10:08:57;99933.69;;;17.55;100.00
27014;BME280;14556;52.222;4.510;2023-07-29T10:11:24;99927.19;;;17.50;100.00
27014;BME280;14556;52.222;4.510;2023-07-29T10:13:52;99938.28;;;17.54;100.00
27014;BME280;14556;52.222;4.510;2023-07-29T10:16:36;99914.22;;;17.47;100.00
27014;BME280;14556;52.222;4.510;2023-07-29T10:19:07;99945.03;;;17.62;100.00
27014;BME280;14556;52.222;4.510;2023-07-29T10:21:35;99943.97;;;17.58;100.00
27014;BME280;14556;52.222;4.510;2023-07-29T10:24:04;99949.66;;;17.67;100.00
27014;BME280;14556;52.222;4.510;2023-07-29T10:26:33;99932.88;;;17.70;100.00
27014;BME280;14556;52.222;4.510;2023-07-29T10:29:04;99953.16;;;17.88;100.00
27014;BME280;14556;52.222;4.510;2023-07-29T10:31:32;99954.25;;;17.92;100.00
27014;BME280;14556;52.222;4.510;2023-07-29T10:34:00;99959.13;;;17.95;100.00
27014;BME280;14556;52.222;4.510;2023-07-29T10:36:27;99944.00;;;17.99;100.00
27014;BME280;14556;52.222;4.510;2023-07-29T10:38:55;99950.50;;;18.09;100.00
27014;BME280;14556;52.222;4.510;2023-07-29T10:41:22;99942.13;;;18.16;100.00
27014;BME280;14556;52.222;4.510;2023-07-29T10:43:49;99946.97;;;18.29;100.00
27014;BME280;14556;52.222;4.510;2023-07-29T10:46:22;99936.16;;;18.24;100.00
27014;BME280;14556;52.222;4.510;2023-07-29T10:48:54;99931.81;;;18.18;100.00
27014;BME280;14556;52.222;4.510;2023-07-29T10:51:29;99936.13;;;18.08;100.00
27014;BME280;14556;52.222;4.510;2023-07-29T10:54:13;99929.63;;;18.04;100.00
27014;BME280;14556;52.222;4.510;2023-07-29T10:56:42;99919.63;;;18.05;100.00
27014;BME280;14556;52.222;4.510;2023-07-29T11:01:40;99922.63;;;18.19;100.00
27014;BME280;14556;52.222;4.510;2023-07-29T11:12:38;99923.94;;;18.06;100.00
27014;BME280;14556;52.222;4.510;2023-07-29T11:17:42;99927.75;;;18.10;100.00
27014;BME280;14556;52.222;4.510;2023-07-29T11:20:12;99919.63;;;18.10;100.00
27014;BME280;14556;52.222;4.510;2023-07-29T11:22:41;99925.59;;;18.07;100.00
27014;BME280;14556;52.222;4.510;2023-07-29T11:25:10;99926.94;;;18.09;100.00
27014;BME280;14556;52.222;4.510;2023-07-29T11:27:38;99933.16;;;18.10;100.00
27014;BME280;14556;52.222;4.510;2023-07-29T11:30:08;99922.59;;;18.08;100.00
27014;BME280;14556;52.222;4.510;2023-07-29T11:32:37;99923.94;;;18.00;100.00
27014;BME280;14556;52.222;4.510;2023-07-29T11:35:09;99939.41;;;18.00;100.00
27014;BME280;14556;52.222;4.510;2023-07-29T11:37:39;99954.25;;;18.03;100.00
27014;BME280;14556;52.222;4.510;2023-07-29T11:40:07;99942.88;;;18.00;100.00
27014;BME280;14556;52.222;4.510;2023-07-29T11:42:34;99941.56;;;17.98;100.00
27014;BME280;14556;52.222;4.510;2023-07-29T11:45:04;99934.78;;;18.00;100.00
27014;BME280;14556;52.222;4.510;2023-07-29T11:47:35;99948.03;;;18.02;100.00
27014;BME280;14556;52.222;4.510;2023-07-29T11:50:07;99947.00;;;18.14;100.00
27014;BME280;14556;52.222;4.510;2023-07-29T11:52:36;99951.28;;;18.25;100.00
27014;BME280;14556;52.222;4.510;2023-07-29T11:55:05;99942.38;;;18.30;100.00
27014;BME280;14556;52.222;4.510;2023-07-29T11:57:35;99935.06;;;18.25;100.00
27014;BME280;14556;52.222;4.510;2023-07-29T12:00:04;99940.75;;;18.29;100.00
27014;BME280;14556;52.222;4.510;2023-07-29T12:02:36;99937.72;;;18.41;100.00
27014;BME280;14556;52.222;4.510;2023-07-29T12:05:04;99929.06;;;18.59;100.00
27014;BME280;14556;52.222;4.510;2023-07-29T12:07:32;99926.78;;;18.88;100.00
27014;BME280;14556;52.222;4.510;2023-07-29T12:09:59;99925.34;;;19.06;100.00
27014;BME280;14556;52.222;4.510;2023-07-29T12:12:26;99931.75;;;19.31;100.00
27014;BME280;14556;52.222;4.510;2023-07-29T12:14:55;99925.16;;;19.42;100.00
27014;BME280;14556;52.222;4.510;2023-07-29T12:17:21;99927.41;;;19.30;100.00
27014;BME280;14556;52.222;4.510;2023-07-29T12:19:49;99915.94;;;19.43;100.00
27014;BME280;14556;52.222;4.510;2023-07-29T12:22:21;99910.16;;;19.55;100.00
27014;BME280;14556;52.222;4.510;2023-07-29T12:24:50;99920.16;;;19.60;100.00
27014;BME280;14556;52.222;4.510;2023-07-29T12:27:17;99912.06;;;19.55;100.00
27014;BME280;14556;52.222;4.510;2023-07-29T12:29:44;99909.44;;;19.79;100.00
27014;BME280;14556;52.222;4.510;2023-07-29T12:32:13;99912.84;;;19.96;100.00
27014;BME280;14556;52.222;4.510;2023-07-29T12:34:40;99912.78;;;20.01;100.00
27014;BME280;14556;52.222;4.510;2023-07-29T12:37:07;99915.50;;;20.01;100.00
27014;BME280;14556;52.222;4.510;2023-07-29T12:39:38;99920.94;;;20.01;100.00
27014;BME280;14556;52.222;4.510;2023-07-29T12:42:06;99922.84;;;20.00;100.00
27014;BME280;14556;52.222;4.510;2023-07-29T12:44:35;99922.09;;;19.95;100.00
27014;BME280;14556;52.222;4.510;2023-07-29T12:47:02;99922.63;;;19.91;100.00
27014;BME280;14556;52.222;4.510;2023-07-29T12:49:30;99912.94;;;19.85;100.00
27014;BME280;14556;52.222;4.510;2023-07-29T12:51:58;99920.50;;;19.88;100.00
27014;BME280;14556;52.222;4.510;2023-07-29T12:54:25;99929.69;;;19.92;100.00
27014;BME280;14556;52.222;4.510;2023-07-29T12:56:53;99918.75;;;20.03;100.00
27014;BME280;14556;52.222;4.510;2023-07-29T12:59:20;99916.63;;;20.00;100.00
27014;BME280;14556;52.222;4.510;2023-07-29T13:01:47;99922.53;;;20.02;100.00
27014;BME280;14556;52.222;4.510;2023-07-29T13:04:14;99910.66;;;19.98;100.00
27014;BME280;14556;52.222;4.510;2023-07-29T13:06:41;99920.28;;;20.14;100.00
27014;BME280;14556;52.222;4.510;2023-07-29T13:09:08;99915.25;;;20.32;100.00
27014;BME280;14556;52.222;4.510;2023-07-29T13:11:34;99924.34;;;20.47;100.00
27014;BME280;14556;52.222;4.510;2023-07-29T13:14:01;99921.03;;;20.50;100.00